sensor_id;sensor_type;location;lat;lon;timestamp;pressure;altitude;pressure_sealevel;temperature;humidity
57644;BME280;43474;46.510;6.686;2023-09-08T00:00:47;96659.56;;;24.81;92.14
57644;BME280;43474;46.510;6.686;2023-09-08T00:03:29;96668.53;;;24.82;92.49
57644;BME280;43474;46.510;6.686;2023-09-08T00:05:55;96662.78;;;24.83;92.19
57644;BME280;43474;46.510;6.686;2023-09-08T00:08:20;96653.34;;;24.81;92.23
57644;BME280;43474;46.510;6.686;2023-09-08T00:10:47;96656.72;;;24.78;91.56
57644;BME280;43474;46.510;6.686;2023-09-08T00:13:12;96662.16;;;24.78;91.46
57644;BME280;43474;46.510;6.686;2023-09-08T00:15:38;96668.34;;;24.78;91.42
57644;BME280;43474;46.510;6.686;2023-09-08T00:18:04;96665.31;;;24.80;91.98
57644;BME280;43474;46.510;6.686;2023-09-08T00:20:29;96663.28;;;24.77;91.50
57644;BME280;43474;46.510;6.686;2023-09-08T00:22:56;96664.53;;;24.79;91.37
57644;BME280;43474;46.510;6.686;2023-09-08T00:25:21;96664.84;;;24.78;91.46
57644;BME280;43474;46.510;6.686;2023-09-08T00:27:47;96660.56;;;24.77;91.40
57644;BME280;43474;46.510;6.686;2023-09-08T00:30:12;96658.31;;;24.79;91.39
57644;BME280;43474;46.510;6.686;2023-09-08T00:32:38;96668.03;;;24.80;91.23
57644;BME280;43474;46.510;6.686;2023-09-08T00:35:07;96669.16;;;24.79;91.48
57644;BME280;43474;46.510;6.686;2023-09-08T00:37:36;96669.16;;;24.79;91.58
57644;BME280;43474;46.510;6.686;2023-09-08T00:40:01;96677.75;;;24.81;91.46
57644;BME280;43474;46.510;6.686;2023-09-08T00:42:27;96674.25;;;24.80;91.61
57644;BME280;43474;46.510;6.686;2023-09-08T00:44:53;96668.34;;;24.78;91.41
57644;BME280;43474;46.510;6.686;2023-09-08T00:47:18;96678.88;;;24.80;91.81
57644;BME280;43474;46.510;6.686;2023-09-08T00:49:44;96683.16;;;24.81;92.01
57644;BME280;43474;46.510;6.686;2023-09-08T00:52:10;96674.25;;;24.80;91.58
57644;BME280;43474;46.510;6.686;2023-09-08T00:54:35;96680.47;;;24.81;91.94
57644;BME280;43474;46.510;6.686;2023-09-08T00:57:02;96663.28;;;24.77;92.04
57644;BME280;43474;46.510;6.686;2023-09-08T00:59:31;96682.38;;;24.80;91.93
57644;BME280;43474;46.510;6.686;2023-09-08T01:01:58;96664.53;;;24.70;92.41
57644;BME280;43474;46.510;6.686;2023-09-08T01:04:24;96677.28;;;24.79;92.33
57644;BME280;43474;46.510;6.686;2023-09-08T01:06:50;96671.41;;;24.77;91.86
57644;BME280;43474;46.510;6.686;2023-09-08T01:09:17;96670.56;;;24.76;92.34
57644;BME280;43474;46.510;6.686;2023-09-08T01:11:43;96681.91;;;24.78;92.04
57644;BME280;43474;46.510;6.686;2023-09-08T01:14:11;96673.44;;;24.80;92.32
57644;BME280;43474;46.510;6.686;2023-09-08T01:16:38;96674.56;;;24.79;92.15
57644;BME280;43474;46.510;6.686;2023-09-08T01:19:07;96667.22;;;24.79;92.18
57644;BME280;43474;46.510;6.686;2023-09-08T01:27:33;96676.94;;;24.80;92.06
57644;BME280;43474;46.510;6.686;2023-09-08T01:30:02;96673.44;;;24.80;92.00
57644;BME280;43474;46.510;6.686;2023-09-08T01:32:29;96669.00;;;24.75;92.31
57644;BME280;43474;46.510;6.686;2023-09-08T01:34:56;96672.19;;;24.77;92.70
57644;BME280;43474;46.510;6.686;2023-09-08T01:37:23;96675.38;;;24.79;92.29
57644;BME280;43474;46.510;6.686;2023-09-08T01:39:49;96666.78;;;24.77;92.56
57644;BME280;43474;46.510;6.686;2023-09-08T01:42:15;96660.56;;;24.77;92.86
57644;BME280;43474;46.510;6.686;2023-09-08T01:44:40;96663.91;;;24.73;92.63
57644;BME280;43474;46.510;6.686;2023-09-08T01:47:06;96663.28;;;24.77;92.63
57644;BME280;43474;46.510;6.686;2023-09-08T01:49:31;96674.25;;;24.80;92.87
57644;BME280;43474;46.510;6.686;2023-09-08T01:51:57;96661.34;;;24.77;92.95
57644;BME280;43474;46.510;6.686;2023-09-08T01:54:23;96664.38;;;24.75;93.07
57644;BME280;43474;46.510;6.686;2023-09-08T01:56:48;96662.94;;;24.78;92.82
57644;BME280;43474;46.510;6.686;2023-09-08T01:59:14;96660.22;;;24.78;92.62
57644;BME280;43474;46.510;6.686;2023-09-08T02:01:39;96651.94;;;24.74;93.14
57644;BME280;43474;46.510;6.686;2023-09-08T02:04:05;96651.94;;;24.74;92.83
57644;BME280;43474;46.510;6.686;2023-09-08T02:06:31;96660.22;;;24.78;93.16
57644;BME280;43474;46.510;6.686;2023-09-08T02:08:56;96661.34;;;24.77;93.30
57644;BME280;43474;46.510;6.686;2023-09-08T02:11:22;96655.59;;;24.79;92.81
57644;BME280;43474;46.510;6.686;2023-09-08T02:13:48;96643.34;;;24.72;93.24
57644;BME280;43474;46.510;6.686;2023-09-08T02:16:14;96653.69;;;24.79;93.11
57644;BME280;43474;46.510;6.686;2023-09-08T02:18:43;96649.72;;;24.77;93.27
57644;BME280;43474;46.510;6.686;2023-09-08T02:21:09;96652.09;;;24.78;93.36
57644;BME280;43474;46.510;6.686;2023-09-08T02:23:35;96662.16;;;24.78;93.24
57644;BME280;43474;46.510;6.686;2023-09-08T02:26:01;96662.16;;;24.78;93.14
57644;BME280;43474;46.510;6.686;2023-09-08T02:28:26;96660.56;;;24.77;93.36
57644;BME280;43474;46.510;6.686;2023-09-08T02:30:53;96664.06;;;24.77;93.13
57644;BME280;43474;46.510;6.686;2023-09-08T02:33:19;96662.31;;;24.72;93.17
57644;BME280;43474;46.510;6.686;2023-09-08T02:35:44;96670.28;;;24.78;93.20
57644;BME280;43474;46.510;6.686;2023-09-08T02:38:10;96669.78;;;24.75;93.20
57644;BME280;43474;46.510;6.686;2023-09-08T02:40:36;96668.69;;;24.77;93.42
57644;BME280;43474;46.510;6.686;2023-09-08T02:43:02;96674.09;;;24.77;93.73
57644;BME280;43474;46.510;6.686;2023-09-08T02:45:28;96670.56;;;24.76;93.54
57644;BME280;43474;46.510;6.686;2023-09-08T02:47:54;96671.41;;;24.77;93.37
57644;BME280;43474;46.510;6.686;2023-09-08T02:50:20;96668.19;;;24.74;93.32
57644;BME280;43474;46.510;6.686;2023-09-08T02:52:46;96678.41;;;24.78;93.65
57644;BME280;43474;46.510;6.686;2023-09-08T02:55:12;96679.19;;;24.78;93.60
57644;BME280;43474;46.510;6.686;2023-09-08T02:57:38;96681.75;;;24.74;93.82
57644;BME280;43474;46.510;6.686;2023-09-08T03:00:05;96678.41;;;24.78;93.26
57644;BME280;43474;46.510;6.686;2023-09-08T03:02:31;96675.22;;;24.75;93.58
57644;BME280;43474;46.510;6.686;2023-09-08T03:04:57;96680.31;;;24.77;93.65
57644;BME280;43474;46.510;6.686;2023-09-08T03:07:23;96675.53;;;24.74;93.39
57644;BME280;43474;46.510;6.686;2023-09-08T03:09:48;96683.03;;;24.77;93.86
57644;BME280;43474;46.510;6.686;2023-09-08T03:12:14;96680.63;;;24.75;93.39
57644;BME280;43474;46.510;6.686;2023-09-08T03:14:40;96688.47;;;24.77;93.36
57644;BME280;43474;46.510;6.686;2023-09-08T03:17:05;96675.53;;;24.74;93.81
57644;BME280;43474;46.510;6.686;2023-09-08T03:19:32;96672.03;;;24.73;93.69
57644;BME280;43474;46.510;6.686;2023-09-08T03:21:57;96672.50;;;24.75;93.73
57644;BME280;43474;46.510;6.686;2023-09-08T03:24:24;96680.63;;;24.75;93.35
57644;BME280;43474;46.510;6.686;2023-09-08T03:26:49;96680.31;;;24.77;93.66
57644;BME280;43474;46.510;6.686;2023-09-08T03:29:15;96671.69;;;24.75;93.70
57644;BME280;43474;46.510;6.686;2023-09-08T03:31:40;96679.03;;;24.74;93.80
57644;BME280;43474;46.510;6.686;2023-09-08T03:34:06;96679.84;;;24.75;93.95
57644;BME280;43474;46.510;6.686;2023-09-08T03:36:32;96670.44;;;24.72;93.52
57644;BME280;43474;46.510;6.686;2023-09-08T03:39:02;96672.03;;;24.73;93.55
57644;BME280;43474;46.510;6.686;2023-09-08T03:41:27;96679.84;;;24.75;93.66
57644;BME280;43474;46.510;6.686;2023-09-08T03:43:53;96672.50;;;24.75;93.35
57644;BME280;43474;46.510;6.686;2023-09-08T03:46:18;96672.81;;;24.74;93.23
57644;BME280;43474;46.510;6.686;2023-09-08T03:48:44;96672.03;;;24.73;93.45
57644;BME280;43474;46.510;6.686;2023-09-08T03:51:10;96664.53;;;24.70;93.29
57644;BME280;43474;46.510;6.686;2023-09-08T03:53:36;96669.66;;;24.72;93.35
57644;BME280;43474;46.510;6.686;2023-09-08T03:56:01;96680.63;;;24.75;93.48
57644;BME280;43474;46.510;6.686;2023-09-08T03:58:27;96656.44;;;24.62;93.31
57644;BME280;43474;46.510;6.686;2023-09-08T04:00:52;96682.53;;;24.75;93.54
57644;BME280;43474;46.510;6.686;2023-09-08T04:03:18;96677.63;;;24.77;93.48
57644;BME280;43474;46.510;6.686;2023-09-08T04:05:44;96680.31;;;24.77;93.40
57644;BME280;43474;46.510;6.686;2023-09-08T04:08:09;96679.03;;;24.74;93.62
57644;BME280;43474;46.510;6.686;2023-09-08T04:10:35;96684.94;;;24.77;93.23
57644;BME280;43474;46.510;6.686;2023-09-08T04:13:01;96671.25;;;24.73;93.38
57644;BME280;43474;46.510;6.686;2023-09-08T04:15:26;96673.94;;;24.73;93.25
57644;BME280;43474;46.510;6.686;2023-09-08T04:17:52;96680.63;;;24.75;93.33
57644;BME280;43474;46.510;6.686;2023-09-08T04:20:17;96684.47;;;24.74;93.17
57644;BME280;43474;46.510;6.686;2023-09-08T04:22:43;96674.41;;;24.75;93.18
57644;BME280;43474;46.510;6.686;2023-09-08T04:25:10;96677.00;;;24.71;92.96
57644;BME280;43474;46.510;6.686;2023-09-08T04:27:36;96683.34;;;24.75;93.22
57644;BME280;43474;46.510;6.686;2023-09-08T04:30:03;96681.59;;;24.71;93.12
57644;BME280;43474;46.510;6.686;2023-09-08T04:32:29;96691.81;;;24.74;92.90
57644;BME280;43474;46.510;6.686;2023-09-08T04:34:55;96691.34;;;24.72;92.80
57644;BME280;43474;46.510;6.686;2023-09-08T04:37:20;96686.38;;;24.74;92.98
57644;BME280;43474;46.510;6.686;2023-09-08T04:39:46;96694.97;;;24.76;92.91
57644;BME280;43474;46.510;6.686;2023-09-08T04:42:12;96694.19;;;24.75;93.15
57644;BME280;43474;46.510;6.686;2023-09-08T04:44:38;96686.72;;;24.72;92.71
57644;BME280;43474;46.510;6.686;2023-09-08T04:47:04;96687.16;;;24.74;92.70
57644;BME280;43474;46.510;6.686;2023-09-08T04:49:30;96693.72;;;24.73;92.37
57644;BME280;43474;46.510;6.686;2023-09-08T04:51:56;96693.25;;;24.71;92.65
57644;BME280;43474;46.510;6.686;2023-09-08T04:54:22;96694.97;;;24.76;92.39
57644;BME280;43474;46.510;6.686;2023-09-08T04:56:49;96699.94;;;24.74;92.69
57644;BME280;43474;46.510;6.686;2023-09-08T04:59:16;96699.13;;;24.73;92.64
57644;BME280;43474;46.510;6.686;2023-09-08T05:01:41;96702.97;;;24.72;92.57
57644;BME280;43474;46.510;6.686;2023-09-08T05:04:09;96700.56;;;24.71;92.50
57644;BME280;43474;46.510;6.686;2023-09-08T05:06:34;96702.47;;;24.70;92.04
57644;BME280;43474;46.510;6.686;2023-09-08T05:09:00;96700.88;;;24.69;91.76
57644;BME280;43474;46.510;6.686;2023-09-08T05:11:26;96705.19;;;24.70;91.89
57644;BME280;43474;46.510;6.686;2023-09-08T05:13:52;96700.09;;;24.69;91.76
57644;BME280;43474;46.510;6.686;2023-09-08T05:16:18;96712.34;;;24.66;91.71
57644;BME280;43474;46.510;6.686;2023-09-08T05:18:50;96706.31;;;24.69;91.82
57644;BME280;43474;46.510;6.686;2023-09-08T05:21:16;96710.16;;;24.68;91.89
57644;BME280;43474;46.510;6.686;2023-09-08T05:23:42;96709.34;;;24.68;91.87
57644;BME280;43474;46.510;6.686;2023-09-08T05:26:08;96703.75;;;24.64;92.13
57644;BME280;43474;46.510;6.686;2023-09-08T05:28:33;96713.81;;;24.64;92.14
57644;BME280;43474;46.510;6.686;2023-09-08T05:30:59;96709.81;;;24.61;91.99
57644;BME280;43474;46.510;6.686;2023-09-08T05:33:24;96717.94;;;24.61;92.27
57644;BME280;43474;46.510;6.686;2023-09-08T05:35:50;96725.28;;;24.61;92.38
57644;BME280;43474;46.510;6.686;2023-09-08T05:38:16;96735.50;;;24.64;92.38
57644;BME280;43474;46.510;6.686;2023-09-08T05:40:42;96728.00;;;24.61;92.55
57644;BME280;43474;46.510;6.686;2023-09-08T05:43:08;96720.53;;;24.58;92.88
57644;BME280;43474;46.510;6.686;2023-09-08T05:45:34;96736.91;;;24.61;92.95
57644;BME280;43474;46.510;6.686;2023-09-08T05:48:00;96733.41;;;24.61;93.05
57644;BME280;43474;46.510;6.686;2023-09-08T05:50:26;96728.66;;;24.58;93.24
57644;BME280;43474;46.510;6.686;2023-09-08T05:52:52;96732.16;;;24.58;93.25
57644;BME280;43474;46.510;6.686;2023-09-08T05:55:18;96736.13;;;24.61;93.79
57644;BME280;43474;46.510;6.686;2023-09-08T05:57:43;96725.44;;;24.56;93.83
57644;BME280;43474;46.510;6.686;2023-09-08T06:00:09;96734.53;;;24.60;93.92
57644;BME280;43474;46.510;6.686;2023-09-08T06:02:35;96738.38;;;24.59;94.33
57644;BME280;43474;46.510;6.686;2023-09-08T06:05:01;96739.94;;;24.60;95.03
57644;BME280;43474;46.510;6.686;2023-09-08T06:07:26;96738.38;;;24.59;95.08
57644;BME280;43474;46.510;6.686;2023-09-08T06:09:52;96738.38;;;24.59;95.01
57644;BME280;43474;46.510;6.686;2023-09-08T06:12:17;96731.34;;;24.58;95.73
57644;BME280;43474;46.510;6.686;2023-09-08T06:14:43;96729.78;;;24.57;96.40
57644;BME280;43474;46.510;6.686;2023-09-08T06:17:10;96741.06;;;24.59;96.43
57644;BME280;43474;46.510;6.686;2023-09-08T06:19:35;96746.50;;;24.59;96.80
57644;BME280;43474;46.510;6.686;2023-09-08T06:22:01;96735.50;;;24.55;97.18
57644;BME280;43474;46.510;6.686;2023-09-08T06:24:27;96743.47;;;24.60;97.18
57644;BME280;43474;46.510;6.686;2023-09-08T06:26:53;96749.38;;;24.62;97.46
57644;BME280;43474;46.510;6.686;2023-09-08T06:29:19;96748.09;;;24.60;98.14
57644;BME280;43474;46.510;6.686;2023-09-08T06:31:44;96741.41;;;24.57;98.32
57644;BME280;43474;46.510;6.686;2023-09-08T06:34:10;96742.19;;;24.58;98.33
57644;BME280;43474;46.510;6.686;2023-09-08T06:36:35;96755.88;;;24.61;98.34
57644;BME280;43474;46.510;6.686;2023-09-08T06:39:02;96754.00;;;24.62;98.44
57644;BME280;43474;46.510;6.686;2023-09-08T06:41:29;96744.91;;;24.58;98.52
57644;BME280;43474;46.510;6.686;2023-09-08T06:43:55;96757.50;;;24.62;98.18
57644;BME280;43474;46.510;6.686;2023-09-08T06:46:20;96751.59;;;24.60;98.25
57644;BME280;43474;46.510;6.686;2023-09-08T06:48:46;96757.19;;;24.64;97.70
57644;BME280;43474;46.510;6.686;2023-09-08T06:51:11;96757.81;;;24.61;97.63
57644;BME280;43474;46.510;6.686;2023-09-08T06:53:37;96763.38;;;24.64;97.35
57644;BME280;43474;46.510;6.686;2023-09-08T06:56:03;96761.47;;;24.65;96.80
57644;BME280;43474;46.510;6.686;2023-09-08T06:58:29;96764.19;;;24.65;97.02
57644;BME280;43474;46.510;6.686;2023-09-08T07:00:54;96755.59;;;24.63;96.76
57644;BME280;43474;46.510;6.686;2023-09-08T07:03:21;96763.06;;;24.66;96.16
57644;BME280;43474;46.510;6.686;2023-09-08T07:05:50;96767.53;;;24.70;96.39
57644;BME280;43474;46.510;6.686;2023-09-08T07:08:16;96759.25;;;24.67;95.92
57644;BME280;43474;46.510;6.686;2023-09-08T07:10:43;96754.28;;;24.60;95.91
57644;BME280;43474;46.510;6.686;2023-09-08T07:13:09;96748.75;;;24.57;95.62
57644;BME280;43474;46.510;6.686;2023-09-08T07:15:35;96752.38;;;24.61;95.91
57644;BME280;43474;46.510;6.686;2023-09-08T07:18:01;96767.38;;;24.67;94.45
57644;BME280;43474;46.510;6.686;2023-09-08T07:20:27;96760.03;;;24.59;94.52
57644;BME280;43474;46.510;6.686;2023-09-08T07:22:52;96753.34;;;24.65;94.32
57644;BME280;43474;46.510;6.686;2023-09-08T07:25:18;96745.69;;;24.58;94.25
57644;BME280;43474;46.510;6.686;2023-09-08T07:27:45;96761.47;;;24.73;94.55
57644;BME280;43474;46.510;6.686;2023-09-08T07:30:11;96764.19;;;24.73;94.42
57644;BME280;43474;46.510;6.686;2023-09-08T07:32:37;96733.91;;;24.54;94.45
57644;BME280;43474;46.510;6.686;2023-09-08T07:35:02;96759.88;;;24.72;93.97
57644;BME280;43474;46.510;6.686;2023-09-08T07:37:29;96745.19;;;24.56;94.12
57644;BME280;43474;46.510;6.686;2023-09-08T07:39:54;96763.41;;;24.73;94.36
57644;BME280;43474;46.510;6.686;2023-09-08T07:42:20;96755.44;;;24.68;94.37
57644;BME280;43474;46.510;6.686;2023-09-08T07:44:47;96774.06;;;24.78;94.37
57644;BME280;43474;46.510;6.686;2023-09-08T07:47:12;96752.88;;;24.63;94.42
57644;BME280;43474;46.510;6.686;2023-09-08T07:49:38;96755.09;;;24.69;94.33
57644;BME280;43474;46.510;6.686;2023-09-08T07:52:04;96759.88;;;24.72;94.29
57644;BME280;43474;46.510;6.686;2023-09-08T07:54:31;96755.09;;;24.69;94.38
57644;BME280;43474;46.510;6.686;2023-09-08T07:56:57;96769.63;;;24.73;94.65
57644;BME280;43474;46.510;6.686;2023-09-08T07:59:22;96762.75;;;24.67;95.20
57644;BME280;43474;46.510;6.686;2023-09-08T08:01:48;96770.75;;;24.72;95.04
57644;BME280;43474;46.510;6.686;2023-09-08T08:04:13;96772.66;;;24.72;95.71
57644;BME280;43474;46.510;6.686;2023-09-08T08:06:39;96767.53;;;24.70;95.51
57644;BME280;43474;46.510;6.686;2023-09-08T08:09:04;96768.31;;;24.71;95.60
57644;BME280;43474;46.510;6.686;2023-09-08T08:11:30;96771.53;;;24.73;95.82
57644;BME280;43474;46.510;6.686;2023-09-08T08:13:56;96767.53;;;24.70;95.72
57644;BME280;43474;46.510;6.686;2023-09-08T08:16:24;96765.94;;;24.69;95.96
57644;BME280;43474;46.510;6.686;2023-09-08T08:18:50;96777.41;;;24.75;96.43
57644;BME280;43474;46.510;6.686;2023-09-08T08:21:16;96770.06;;;24.75;96.38
57644;BME280;43474;46.510;6.686;2023-09-08T08:23:41;96776.63;;;24.74;96.40
57644;BME280;43474;46.510;6.686;2023-09-08T08:26:07;96779.00;;;24.76;96.83
57644;BME280;43474;46.510;6.686;2023-09-08T08:28:33;96771.19;;;24.74;96.72
57644;BME280;43474;46.510;6.686;2023-09-08T08:30:58;96773.44;;;24.72;96.30
57644;BME280;43474;46.510;6.686;2023-09-08T08:33:24;96777.13;;;24.77;96.69
57644;BME280;43474;46.510;6.686;2023-09-08T08:35:54;96781.41;;;24.78;96.36
57644;BME280;43474;46.510;6.686;2023-09-08T08:38:19;96775.19;;;24.77;96.89
57644;BME280;43474;46.510;6.686;2023-09-08T08:40:45;96772.50;;;24.77;96.93
57644;BME280;43474;46.510;6.686;2023-09-08T08:43:11;96773.75;;;24.80;96.18
57644;BME280;43474;46.510;6.686;2023-09-08T08:45:38;96775.34;;;24.81;96.14
57644;BME280;43474;46.510;6.686;2023-09-08T08:48:05;96768.81;;;24.82;95.85
57644;BME280;43474;46.510;6.686;2023-09-08T08:50:35;96766.41;;;24.80;95.82
57644;BME280;43474;46.510;6.686;2023-09-08T08:53:01;96769.63;;;24.82;95.99
57644;BME280;43474;46.510;6.686;2023-09-08T08:55:29;96769.91;;;24.81;97.01
57644;BME280;43474;46.510;6.686;2023-09-08T08:58:01;96757.66;;;24.83;96.15
57644;BME280;43474;46.510;6.686;2023-09-08T09:00:28;96756.53;;;24.84;96.16
57644;BME280;43474;46.510;6.686;2023-09-08T09:02:55;96754.94;;;24.83;96.00
57644;BME280;43474;46.510;6.686;2023-09-08T09:05:22;96743.31;;;24.83;96.43
57644;BME280;43474;46.510;6.686;2023-09-08T09:07:50;96754.59;;;24.85;96.30
57644;BME280;43474;46.510;6.686;2023-09-08T09:10:16;96745.69;;;24.84;96.51
57644;BME280;43474;46.510;6.686;2023-09-08T09:12:41;96741.72;;;24.82;96.25
57644;BME280;43474;46.510;6.686;2023-09-08T09:15:07;96741.72;;;24.82;96.53
57644;BME280;43474;46.510;6.686;2023-09-08T09:17:37;96762.41;;;24.86;96.83
57644;BME280;43474;46.510;6.686;2023-09-08T09:20:19;96757.31;;;24.85;96.63
57644;BME280;43474;46.510;6.686;2023-09-08T09:22:46;96748.84;;;24.86;97.06
57644;BME280;43474;46.510;6.686;2023-09-08T09:25:23;96751.72;;;24.90;97.25
57644;BME280;43474;46.510;6.686;2023-09-08T09:27:58;96753.19;;;24.87;97.21
57644;BME280;43474;46.510;6.686;2023-09-08T09:30:25;96746.16;;;24.86;96.54
57644;BME280;43474;46.510;6.686;2023-09-08T09:33:04;96750.16;;;24.89;96.76
57644;BME280;43474;46.510;6.686;2023-09-08T09:35:46;96759.41;;;24.88;97.09
57644;BME280;43474;46.510;6.686;2023-09-08T09:38:13;96749.34;;;24.88;97.18
57644;BME280;43474;46.510;6.686;2023-09-08T09:40:39;96740.59;;;24.83;96.97
57644;BME280;43474;46.510;6.686;2023-09-08T09:43:05;96741.22;;;24.88;96.94
57644;BME280;43474;46.510;6.686;2023-09-08T09:45:35;96743.59;;;24.90;97.20
57644;BME280;43474;46.510;6.686;2023-09-08T09:48:05;96745.19;;;24.91;97.29
57644;BME280;43474;46.510;6.686;2023-09-08T09:50:36;96740.44;;;24.88;96.56
57644;BME280;43474;46.510;6.686;2023-09-08T09:53:10;96746.00;;;24.91;96.98
57644;BME280;43474;46.510;6.686;2023-09-08T09:55:37;96738.50;;;24.88;96.61
57644;BME280;43474;46.510;6.686;2023-09-08T09:58:06;96739.75;;;24.91;96.81
57644;BME280;43474;46.510;6.686;2023-09-08T10:00:34;96739.75;;;24.91;96.56
57644;BME280;43474;46.510;6.686;2023-09-08T10:03:00;96736.25;;;24.90;96.77
57644;BME280;43474;46.510;6.686;2023-09-08T10:05:26;96729.59;;;24.88;96.50
57644;BME280;43474;46.510;6.686;2023-09-08T10:07:52;96727.34;;;24.90;96.57
57644;BME280;43474;46.510;6.686;2023-09-08T10:10:19;96723.81;;;24.89;96.67
57644;BME280;43474;46.510;6.686;2023-09-08T10:12:57;96730.53;;;24.92;96.29
57644;BME280;43474;46.510;6.686;2023-09-08T10:15:26;96726.22;;;24.91;96.46
57644;BME280;43474;46.510;6.686;2023-09-08T10:17:54;96725.91;;;24.92;96.71
57644;BME280;43474;46.510;6.686;2023-09-08T10:20:24;96714.28;;;24.92;96.54
57644;BME280;43474;46.510;6.686;2023-09-08T10:23:23;96721.28;;;24.93;96.64
57644;BME280;43474;46.510;6.686;2023-09-08T10:25:56;96726.69;;;24.93;96.10
57644;BME280;43474;46.510;6.686;2023-09-08T10:28:23;96722.06;;;24.93;96.27
57644;BME280;43474;46.510;6.686;2023-09-08T10:30:50;96725.91;;;24.92;96.03
57644;BME280;43474;46.510;6.686;2023-09-08T10:33:17;96726.69;;;24.93;96.23
57644;BME280;43474;46.510;6.686;2023-09-08T10:35:43;96714.91;;;24.89;96.07
57644;BME280;43474;46.510;6.686;2023-09-08T10:38:32;96724.78;;;24.93;96.31
57644;BME280;43474;46.510;6.686;2023-09-08T10:43:42;96712.34;;;24.92;96.02
57644;BME280;43474;46.510;6.686;2023-09-08T10:46:21;96698.31;;;24.90;96.02
57644;BME280;43474;46.510;6.686;2023-09-08T10:48:47;96701.00;;;24.90;95.71
57644;BME280;43474;46.510;6.686;2023-09-08T10:51:13;96705.00;;;24.93;96.25
57644;BME280;43474;46.510;6.686;2023-09-08T10:53:39;96699.91;;;24.91;95.86
57644;BME280;43474;46.510;6.686;2023-09-08T10:56:05;96701.00;;;24.90;95.84
57644;BME280;43474;46.510;6.686;2023-09-08T10:58:33;96708.19;;;24.95;95.77
57644;BME280;43474;46.510;6.686;2023-09-08T11:01:00;96686.66;;;24.90;95.81
57644;BME280;43474;46.510;6.686;2023-09-08T11:06:05;96696.53;;;24.94;95.59
57644;BME280;43474;46.510;6.686;2023-09-08T11:08:32;96695.75;;;24.94;95.50
57644;BME280;43474;46.510;6.686;2023-09-08T11:10:59;96698.13;;;24.95;95.11
57644;BME280;43474;46.510;6.686;2023-09-08T11:13:26;96689.53;;;24.93;95.32
57644;BME280;43474;46.510;6.686;2023-09-08T11:15:52;96698.13;;;24.95;95.32
57644;BME280;43474;46.510;6.686;2023-09-08T11:18:26;96691.91;;;24.95;95.09
57644;BME280;43474;46.510;6.686;2023-09-08T11:20:52;96700.53;;;24.97;94.95
57644;BME280;43474;46.510;6.686;2023-09-08T11:23:18;96705.16;;;24.96;95.21
57644;BME280;43474;46.510;6.686;2023-09-08T11:25:43;96690.78;;;24.96;95.12
57644;BME280;43474;46.510;6.686;2023-09-08T11:28:09;96687.00;;;24.97;95.09
57644;BME280;43474;46.510;6.686;2023-09-08T11:30:35;96688.75;;;24.93;94.66
57644;BME280;43474;46.510;6.686;2023-09-08T11:33:01;96694.00;;;24.98;94.73
57644;BME280;43474;46.510;6.686;2023-09-08T11:35:27;96680.00;;;24.87;94.91
57644;BME280;43474;46.510;6.686;2023-09-08T11:37:58;96691.28;;;24.98;94.79
57644;BME280;43474;46.510;6.686;2023-09-08T11:40:24;96686.03;;;24.93;94.58
57644;BME280;43474;46.510;6.686;2023-09-08T11:42:50;96686.81;;;24.93;94.67
57644;BME280;43474;46.510;6.686;2023-09-08T11:45:18;96679.31;;;24.90;94.60
57644;BME280;43474;46.510;6.686;2023-09-08T11:47:46;96690.78;;;24.96;94.58
57644;BME280;43474;46.510;6.686;2023-09-08T11:50:15;96674.38;;;24.92;94.66
57644;BME280;43474;46.510;6.686;2023-09-08T11:52:45;96679.94;;;24.96;94.28
57644;BME280;43474;46.510;6.686;2023-09-08T11:55:11;96685.06;;;24.97;94.64
57644;BME280;43474;46.510;6.686;2023-09-08T11:57:42;96664.03;;;24.86;94.38
57644;BME280;43474;46.510;6.686;2023-09-08T12:00:10;96673.44;;;24.97;94.33
57644;BME280;43474;46.510;6.686;2023-09-08T12:02:39;96676.94;;;24.97;94.32
57644;BME280;43474;46.510;6.686;2023-09-08T12:05:05;96673.09;;;24.98;94.23
57644;BME280;43474;46.510;6.686;2023-09-08T12:07:37;96674.22;;;24.97;93.98
57644;BME280;43474;46.510;6.686;2023-09-08T12:10:08;96671.97;;;24.99;93.74
57644;BME280;43474;46.510;6.686;2023-09-08T12:12:41;96671.19;;;24.99;93.77
57644;BME280;43474;46.510;6.686;2023-09-08T12:15:07;96654.28;;;24.93;93.76
57644;BME280;43474;46.510;6.686;2023-09-08T12:17:33;96655.53;;;24.96;93.64
57644;BME280;43474;46.510;6.686;2023-09-08T12:19:59;96661.13;;;24.99;93.64
57644;BME280;43474;46.510;6.686;2023-09-08T12:22:24;96659.53;;;24.98;93.36
57644;BME280;43474;46.510;6.686;2023-09-08T12:27:19;96642.81;;;24.96;92.99
57644;BME280;43474;46.510;6.686;2023-09-08T12:29:58;96638.19;;;24.97;92.79
57644;BME280;43474;46.510;6.686;2023-09-08T12:32:26;96643.28;;;24.98;93.23
57644;BME280;43474;46.510;6.686;2023-09-08T12:34:54;96641.34;;;24.99;93.20
57644;BME280;43474;46.510;6.686;2023-09-08T12:37:24;96635.47;;;24.97;93.05
57644;BME280;43474;46.510;6.686;2023-09-08T12:39:50;96637.50;;;25.00;93.14
57644;BME280;43474;46.510;6.686;2023-09-08T12:42:17;96630.50;;;24.99;92.60
57644;BME280;43474;46.510;6.686;2023-09-08T12:44:43;96628.91;;;24.98;92.40
57644;BME280;43474;46.510;6.686;2023-09-08T12:47:10;96634.50;;;25.01;92.36
57644;BME280;43474;46.510;6.686;2023-09-08T12:49:37;96631.78;;;25.01;91.79
57644;BME280;43474;46.510;6.686;2023-09-08T12:52:03;96626.38;;;25.01;91.67
57644;BME280;43474;46.510;6.686;2023-09-08T12:54:29;96625.69;;;25.05;91.32
57644;BME280;43474;46.510;6.686;2023-09-08T12:56:55;96613.09;;;25.00;91.04
57644;BME280;43474;46.510;6.686;2023-09-08T12:59:21;96615.19;;;25.03;91.48
57644;BME280;43474;46.510;6.686;2023-09-08T13:01:46;96617.56;;;25.05;91.32
57644;BME280;43474;46.510;6.686;2023-09-08T13:04:12;96607.84;;;25.04;91.44
57644;BME280;43474;46.510;6.686;2023-09-08T13:06:38;96606.38;;;25.06;91.34
57644;BME280;43474;46.510;6.686;2023-09-08T13:09:03;96604.78;;;25.05;91.23
57644;BME280;43474;46.510;6.686;2023-09-08T13:11:31;96610.22;;;25.05;91.26